Time;durP1;ratioP1;P1;durP2;ratioP2;P2;SDS_P1;SDS_P2;PMS_P1;PMS_P2;Temp;Humidity;BMP_temperature;BMP_pressure;BME280_temperature;BME280_humidity;BME280_pressure;Samples;Min_cycle;Max_cycle;Signal;HPM_P1;HPM_P2
2023/06/04 00:01:57;;;;;;;;;;;;;;;17.60;57.22;100970.00;5055312;28;1111;-56
2023/06/04 00:04:23;;;;;;;;;;;;;;;16.91;58.10;100963.03;5055005;28;1024;-56
2023/06/04 00:06:49;;;;;;;;;;;;;;;16.64;57.86;100958.53;5055407;28;1118;-56
2023/06/04 00:09:14;;;;;;;;;;;;;;;16.49;57.48;100964.78;5055096;28;1906;-55
2023/06/04 00:11:40;;;;;;;;;;;;;;;16.39;57.55;100962.84;5055431;28;1059;-55
2023/06/04 00:14:05;;;;;;;;;;;;;;;16.37;57.11;100965.03;5058652;28;1115;-56
2023/06/04 00:16:31;;;;;;;;;;;;;;;16.32;56.92;100967.75;5051498;28;858;-55
2023/06/04 00:18:56;;;;;;;;;;;;;;;16.21;56.75;100972.34;5038825;28;1203;-55
2023/06/04 00:21:22;;;;;;;;;;;;;;;16.09;56.80;100974.50;5046453;28;1056;-54
2023/06/04 00:23:47;;;;;;;;;;;;;;;17.05;57.81;100975.16;5058709;28;1024;-53
2023/06/04 00:26:13;;;;;;;;;;;;;;;17.35;58.00;100975.47;5051570;28;1056;-58
2023/06/04 00:28:43;;;;;;;;;;;;;;;16.79;58.27;100981.66;5052737;28;1922;-57
2023/06/04 00:31:10;;;;;;;;;;;;;;;16.62;57.71;100970.88;5058483;28;1020;-57
2023/06/04 00:33:35;;;;;;;;;;;;;;;16.53;57.22;100978.81;5045171;28;1091;-56
2023/06/04 00:36:01;;;;;;;;;;;;;;;16.36;57.41;100968.06;5040523;28;1386;-57
2023/06/04 00:38:27;;;;;;;;;;;;;;;16.35;56.99;100980.94;5058706;28;1017;-56
2023/06/04 00:40:52;;;;;;;;;;;;;;;16.25;56.98;100967.16;5032208;28;878;-57
2023/06/04 00:43:18;;;;;;;;;;;;;;;16.22;56.55;100967.72;5052789;28;1115;-56
2023/06/04 00:45:44;;;;;;;;;;;;;;;17.23;58.03;100975.75;5040428;28;1474;-56
2023/06/04 00:48:10;;;;;;;;;;;;;;;17.06;57.99;100965.81;5057876;28;1981;-57
2023/06/04 00:50:35;;;;;;;;;;;;;;;16.65;58.29;100965.69;5040532;28;1249;-57
2023/06/04 00:53:01;;;;;;;;;;;;;;;16.56;57.76;100964.56;5039550;28;1134;-58
2023/06/04 00:55:26;;;;;;;;;;;;;;;16.42;57.54;100962.31;5027927;28;1116;-57
2023/06/04 00:57:52;;;;;;;;;;;;;;;16.35;57.23;100966.38;5058134;28;1075;-56
2023/06/04 01:00:17;;;;;;;;;;;;;;;16.28;57.14;100971.31;5058307;28;1084;-56
2023/06/04 01:02:43;;;;;;;;;;;;;;;16.20;57.31;100975.38;5058165;28;1221;-56
2023/06/04 01:05:24;;;;;;;;;;;;;;;17.29;58.34;100980.13;5030052;28;1187;-56
2023/06/04 01:07:49;;;;;;;;;;;;;;;17.13;58.53;100983.97;5057693;28;1111;-56
2023/06/04 01:10:15;;;;;;;;;;;;;;;16.76;58.59;100989.34;5040243;28;1985;-56
2023/06/04 01:12:43;;;;;;;;;;;;;;;16.58;58.05;100982.41;5057972;28;1211;-56
2023/06/04 01:15:09;;;;;;;;;;;;;;;16.50;57.85;100988.41;5058064;28;1052;-56
2023/06/04 01:17:46;;;;;;;;;;;;;;;16.39;57.51;100990.28;5037059;28;1140;-56
2023/06/04 01:20:12;;;;;;;;;;;;;;;16.29;57.43;100989.41;5030841;28;1057;-56
2023/06/04 01:22:41;;;;;;;;;;;;;;;16.24;57.09;100987.47;5039404;28;1253;-55
2023/06/04 01:25:33;;;;;;;;;;;;;;;16.22;57.03;100993.22;5057539;28;1408;-56
2023/06/04 01:27:58;;;;;;;;;;;;;;;16.15;56.97;100995.38;5037390;28;1863;-56
2023/06/04 01:30:34;;;;;;;;;;;;;;;16.67;58.15;100995.63;5022805;28;2257;-56
2023/06/04 01:33:00;;;;;;;;;;;;;;;17.44;58.46;100993.88;5057379;28;1081;-56
2023/06/04 01:35:26;;;;;;;;;;;;;;;16.83;58.81;100999.25;5057670;28;1215;-57
2023/06/04 01:37:52;;;;;;;;;;;;;;;16.62;58.48;100993.69;5057515;28;1043;-57
2023/06/04 01:40:18;;;;;;;;;;;;;;;16.47;57.96;100990.88;5039097;28;1578;-57
2023/06/04 01:42:43;;;;;;;;;;;;;;;16.40;57.40;100994.69;5039162;28;1139;-56
2023/06/04 01:45:09;;;;;;;;;;;;;;;16.35;57.15;100994.66;5038949;28;1052;-56
2023/06/04 01:47:35;;;;;;;;;;;;;;;16.27;57.20;100997.94;5057448;28;1140;-56
2023/06/04 01:50:02;;;;;;;;;;;;;;;16.18;57.08;101000.31;5039131;28;1965;-56
2023/06/04 01:52:28;;;;;;;;;;;;;;;16.83;58.48;101005.56;5057002;28;1028;-57
2023/06/04 01:54:53;;;;;;;;;;;;;;;17.59;58.47;101006.00;5043545;28;1044;-57
2023/06/04 01:57:22;;;;;;;;;;;;;;;16.94;59.01;101009.19;5056753;28;1028;-57
2023/06/04 01:59:47;;;;;;;;;;;;;;;16.70;58.50;101008.81;5039167;28;1091;-57
2023/06/04 02:02:13;;;;;;;;;;;;;;;16.56;58.12;101016.72;5056675;28;1098;-57
2023/06/04 02:04:41;;;;;;;;;;;;;;;16.50;57.50;101023.28;5038657;28;1227;-57
2023/06/04 02:07:09;;;;;;;;;;;;;;;16.35;57.64;101022.09;5047037;28;1092;-57
2023/06/04 02:09:35;;;;;;;;;;;;;;;16.26;57.29;101018.22;5053418;28;1905;-57
2023/06/04 02:12:01;;;;;;;;;;;;;;;16.20;57.24;101019.25;5056664;28;1120;-57
2023/06/04 02:14:26;;;;;;;;;;;;;;;16.15;57.03;101027.47;5056498;28;1214;-56
2023/06/04 02:16:53;;;;;;;;;;;;;;;16.48;58.35;101030.94;5038695;28;1120;-56
2023/06/04 02:19:20;;;;;;;;;;;;;;;17.62;58.98;101032.94;5043707;28;1218;-56
2023/06/04 02:21:46;;;;;;;;;;;;;;;16.92;59.38;101039.69;5056629;28;1043;-57
2023/06/04 02:24:11;;;;;;;;;;;;;;;16.70;58.79;101048.06;5056111;28;1164;-57
2023/06/04 02:26:37;;;;;;;;;;;;;;;16.51;58.21;101047.72;5056217;28;1143;-57
2023/06/04 02:29:02;;;;;;;;;;;;;;;16.40;58.00;101048.75;5053081;28;1902;-57
2023/06/04 02:31:28;;;;;;;;;;;;;;;16.33;57.64;101056.41;5046594;28;1083;-57
2023/06/04 02:33:53;;;;;;;;;;;;;;;16.26;57.45;101045.66;5052297;28;1210;-57
2023/06/04 02:36:19;;;;;;;;;;;;;;;16.20;57.32;101046.69;5035437;28;1040;-57
2023/06/04 02:38:45;;;;;;;;;;;;;;;16.13;57.17;101046.09;5040407;28;1151;-56
2023/06/04 02:41:10;;;;;;;;;;;;;;;16.10;57.36;101046.63;5055952;28;1121;-56
2023/06/04 02:43:36;;;;;;;;;;;;;;;17.32;59.52;101053.81;5024837;28;1084;-56
2023/06/04 02:46:02;;;;;;;;;;;;;;;17.24;59.40;101049.66;5056130;28;1032;-56
2023/06/04 02:48:27;;;;;;;;;;;;;;;16.79;59.38;101047.56;5055780;28;1977;-57
2023/06/04 02:50:53;;;;;;;;;;;;;;;16.58;58.72;101044.75;5055958;28;1048;-57
2023/06/04 02:53:18;;;;;;;;;;;;;;;16.45;58.07;101050.69;5051738;28;1121;-55
2023/06/04 02:55:44;;;;;;;;;;;;;;;16.31;58.02;101053.91;5036367;28;1208;-56
2023/06/04 02:58:09;;;;;;;;;;;;;;;16.30;57.75;101059.66;5053677;28;1068;-55
2023/06/04 03:00:35;;;;;;;;;;;;;;;16.24;57.40;101056.06;5038115;28;1033;-54
2023/06/04 03:03:01;;;;;;;;;;;;;;;16.19;57.14;101061.53;5038224;28;1208;-54
2023/06/04 03:05:26;;;;;;;;;;;;;;;16.18;57.16;101065.34;5037997;28;1239;-53
2023/06/04 03:07:53;;;;;;;;;;;;;;;17.39;59.29;101072.78;5020756;28;1123;-54
2023/06/04 03:10:18;;;;;;;;;;;;;;;17.12;59.52;101070.25;5035481;28;1902;-55
2023/06/04 03:12:44;;;;;;;;;;;;;;;16.73;58.93;101072.28;5040472;28;1111;-56
2023/06/04 03:15:09;;;;;;;;;;;;;;;16.56;58.43;101079.84;5038353;28;1144;-56
2023/06/04 03:17:35;;;;;;;;;;;;;;;16.42;57.88;101074.84;5054979;28;1316;-58
2023/06/04 03:20:01;;;;;;;;;;;;;;;16.33;57.68;101065.44;5042582;28;1138;-60
2023/06/04 03:22:28;;;;;;;;;;;;;;;16.24;57.58;101078.00;5038309;28;1358;-59
2023/06/04 03:24:53;;;;;;;;;;;;;;;16.17;57.45;101074.66;5055656;28;1195;-59
2023/06/04 03:27:19;;;;;;;;;;;;;;;17.02;59.67;101087.53;5037919;28;1455;-58
2023/06/04 03:29:45;;;;;;;;;;;;;;;17.30;59.50;101082.66;5032139;28;1981;-57
2023/06/04 03:32:12;;;;;;;;;;;;;;;16.78;59.24;101096.19;5031078;28;1149;-60
2023/06/04 03:34:38;;;;;;;;;;;;;;;16.61;58.50;101090.88;5037963;28;1136;-62
2023/06/04 03:37:03;;;;;;;;;;;;;;;16.46;58.07;101088.03;5055673;28;1059;-58
2023/06/04 03:39:29;;;;;;;;;;;;;;;16.37;57.76;101093.22;5027891;28;1028;-58
2023/06/04 03:41:56;;;;;;;;;;;;;;;16.33;57.40;101097.56;5031112;28;1289;-57
2023/06/04 03:44:23;;;;;;;;;;;;;;;16.18;57.43;101103.75;5028015;28;1135;-59
2023/06/04 03:46:49;;;;;;;;;;;;;;;16.16;56.97;101103.19;5036836;28;1390;-57
2023/06/04 03:49:17;;;;;;;;;;;;;;;16.66;58.75;101110.13;5040871;28;1950;-58
2023/06/04 03:51:44;;;;;;;;;;;;;;;17.46;59.01;101122.84;5058780;28;1229;-57
2023/06/04 03:54:10;;;;;;;;;;;;;;;16.85;59.10;101123.41;5040657;28;1321;-57
2023/06/04 03:56:36;;;;;;;;;;;;;;;16.59;59.01;101121.34;5059450;28;1100;-56
2023/06/04 03:59:01;;;;;;;;;;;;;;;16.52;58.21;101126.25;5041377;28;1144;-56
2023/06/04 04:01:28;;;;;;;;;;;;;;;16.40;57.84;101128.34;5058242;28;993;-56
2023/06/04 04:03:55;;;;;;;;;;;;;;;16.28;57.77;101138.69;5040452;28;1189;-55
2023/06/04 04:06:21;;;;;;;;;;;;;;;16.28;57.25;101136.75;5057995;28;1008;-58
2023/06/04 04:08:48;;;;;;;;;;;;;;;16.18;57.11;101136.69;5026581;28;1898;-55
2023/06/04 04:11:16;;;;;;;;;;;;;;;16.14;57.07;101130.06;5040272;28;1225;-56
2023/06/04 04:13:41;;;;;;;;;;;;;;;16.07;56.95;101131.13;5040809;28;1140;-56
2023/06/04 04:16:07;;;;;;;;;;;;;;;17.22;59.25;101136.22;5021361;28;1360;-56
2023/06/04 04:18:33;;;;;;;;;;;;;;;17.03;59.28;101136.69;5039490;28;1301;-54
2023/06/04 04:20:59;;;;;;;;;;;;;;;16.65;59.06;101141.41;5040847;28;1088;-55
2023/06/04 04:23:25;;;;;;;;;;;;;;;16.51;58.50;101140.22;5058822;28;1187;-56
2023/06/04 04:25:53;;;;;;;;;;;;;;;16.35;58.08;101142.84;5040563;28;1406;-55
2023/06/04 04:28:19;;;;;;;;;;;;;;;16.35;57.59;101145.59;5040890;28;1965;-55
2023/06/04 04:30:46;;;;;;;;;;;;;;;16.22;57.23;101140.56;5058448;28;1051;-53
2023/06/04 04:33:15;;;;;;;;;;;;;;;16.38;57.97;101144.25;5021594;28;1176;-54
2023/06/04 04:35:44;;;;;;;;;;;;;;;17.61;58.81;101147.63;5026496;28;1356;-57
2023/06/04 04:38:10;;;;;;;;;;;;;;;16.96;59.40;101147.13;5058322;28;1156;-57
2023/06/04 04:40:42;;;;;;;;;;;;;;;16.65;58.91;101146.91;5040348;28;1451;-56
2023/06/04 04:43:10;;;;;;;;;;;;;;;16.55;58.26;101153.16;5040191;28;1119;-56
2023/06/04 04:45:36;;;;;;;;;;;;;;;16.40;58.03;101151.13;5020466;28;1579;-54
2023/06/04 04:48:04;;;;;;;;;;;;;;;16.29;57.61;101154.88;5034325;28;1138;-55
2023/06/04 04:50:31;;;;;;;;;;;;;;;16.25;57.46;101160.06;5040432;28;1985;-53
2023/06/04 04:52:57;;;;;;;;;;;;;;;16.24;57.04;101152.09;5040384;28;1520;-54
2023/06/04 04:55:23;;;;;;;;;;;;;;;16.43;58.22;101160.75;5032889;28;1361;-57
2023/06/04 04:57:51;;;;;;;;;;;;;;;17.71;58.77;101159.72;5004322;28;1180;-56
2023/06/04 05:00:18;;;;;;;;;;;;;;;17.21;57.29;101160.13;5028194;28;1381;-55
2023/06/04 05:02:47;;;;;;;;;;;;;;;16.88;54.71;101158.56;5040179;28;1215;-54
2023/06/04 05:05:14;;;;;;;;;;;;;;;16.73;52.87;101159.31;5039807;28;1231;-55
2023/06/04 05:07:41;;;;;;;;;;;;;;;16.48;51.78;101163.53;5024738;28;1232;-55
2023/06/04 05:10:08;;;;;;;;;;;;;;;17.19;54.62;101151.31;5020343;28;2301;-55
2023/06/04 05:12:34;;;;;;;;;;;;;;;16.85;53.08;101159.13;5022380;28;1152;-55
2023/06/04 05:15:03;;;;;;;;;;;;;;;16.66;51.75;101156.81;5058266;28;1258;-56
2023/06/04 05:17:29;;;;;;;;;;;;;;;17.91;55.06;101161.75;5039466;28;1087;-56
2023/06/04 05:20:11;;;;;;;;;;;;;;;17.27;53.68;101159.06;5029329;28;1237;-56
2023/06/04 05:22:38;;;;;;;;;;;;;;;17.01;52.18;101169.13;5038823;28;1120;-56
2023/06/04 05:25:06;;;;;;;;;;;;;;;16.86;50.88;101163.53;5039790;28;1169;-55
2023/06/04 05:27:32;;;;;;;;;;;;;;;17.09;51.85;101168.59;5023259;28;1219;-56
2023/06/04 05:29:58;;;;;;;;;;;;;;;17.54;53.43;101168.22;5057590;28;1910;-55
2023/06/04 05:32:23;;;;;;;;;;;;;;;17.21;52.14;101171.13;5039488;28;1612;-56
2023/06/04 05:34:49;;;;;;;;;;;;;;;17.05;50.75;101178.47;5057470;28;1164;-56
2023/06/04 05:37:18;;;;;;;;;;;;;;;17.19;50.43;101178.81;5039374;28;1430;-56
2023/06/04 05:39:43;;;;;;;;;;;;;;;17.75;52.79;101182.84;5057530;28;1156;-56
2023/06/04 05:42:14;;;;;;;;;;;;;;;17.39;51.91;101191.81;5035033;28;1187;-56
2023/06/04 05:44:40;;;;;;;;;;;;;;;17.80;52.75;101185.63;5039352;28;1210;-56
2023/06/04 05:47:08;;;;;;;;;;;;;;;17.98;53.23;101189.81;5039036;28;1058;-57
2023/06/04 05:49:34;;;;;;;;;;;;;;;17.61;51.80;101186.13;5039319;28;1913;-56
2023/06/04 05:51:59;;;;;;;;;;;;;;;18.27;52.96;101183.75;5039215;28;1419;-56
2023/06/04 05:54:26;;;;;;;;;;;;;;;17.83;52.46;101181.50;5039108;28;1128;-57
2023/06/04 05:56:52;;;;;;;;;;;;;;;17.53;51.11;101183.91;5039047;28;1143;-57
2023/06/04 05:59:17;;;;;;;;;;;;;;;17.45;49.91;101185.25;5057024;28;1024;-56
2023/06/04 06:01:43;;;;;;;;;;;;;;;17.36;49.09;101186.03;5056866;28;1147;-58
2023/06/04 06:04:10;;;;;;;;;;;;;;;18.35;51.52;101198.91;5038816;28;1201;-60
2023/06/04 06:06:36;;;;;;;;;;;;;;;17.63;51.52;101202.34;5038599;28;1166;-54
2023/06/04 06:09:02;;;;;;;;;;;;;;;17.52;50.06;101186.94;5038743;28;1906;-52
2023/06/04 06:11:29;;;;;;;;;;;;;;;18.20;51.61;101191.47;5038073;28;1673;-49
2023/06/04 06:13:55;;;;;;;;;;;;;;;17.68;51.23;101199.59;5025592;28;1165;-52
2023/06/04 06:16:21;;;;;;;;;;;;;;;17.48;50.00;101196.81;5038211;28;1139;-56
2023/06/04 06:18:46;;;;;;;;;;;;;;;17.43;48.89;101208.59;5038460;28;1163;-53
2023/06/04 06:21:12;;;;;;;;;;;;;;;17.38;48.27;101211.34;5025874;28;1324;-54
2023/06/04 06:23:38;;;;;;;;;;;;;;;18.43;50.75;101217.66;5024981;28;1164;-55
2023/06/04 06:26:08;;;;;;;;;;;;;;;17.84;50.61;101202.38;5038726;28;1426;-54
2023/06/04 06:28:37;;;;;;;;;;;;;;;17.58;49.63;101202.34;5038626;28;1914;-54
2023/06/04 06:31:03;;;;;;;;;;;;;;;17.52;48.46;101201.50;5038109;28;1636;-51
2023/06/04 06:33:29;;;;;;;;;;;;;;;18.12;50.72;101212.94;5041804;28;1152;-52
2023/06/04 06:35:54;;;;;;;;;;;;;;;17.73;49.80;101199.63;5056776;28;1044;-55
2023/06/04 06:38:20;;;;;;;;;;;;;;;17.50;49.12;101198.19;5056126;28;1178;-53
2023/06/04 06:40:45;;;;;;;;;;;;;;;17.58;49.20;101196.84;5056363;28;1084;-50
2023/06/04 06:43:11;;;;;;;;;;;;;;;18.35;50.57;101199.72;5055711;28;1144;-54
2023/06/04 06:45:36;;;;;;;;;;;;;;;17.81;50.08;101211.19;5036357;28;1211;-53
2023/06/04 06:48:02;;;;;;;;;;;;;;;17.64;49.14;101201.25;5049729;28;1016;-52
2023/06/04 06:50:27;;;;;;;;;;;;;;;17.55;48.30;101203.69;5056014;28;1979;-52
2023/06/04 06:52:53;;;;;;;;;;;;;;;17.47;47.78;101201.47;5055922;28;1118;-53
2023/06/04 06:55:18;;;;;;;;;;;;;;;17.35;47.44;101204.44;5055815;28;1697;-52
2023/06/04 06:57:44;;;;;;;;;;;;;;;18.25;49.30;101211.56;5042895;28;1220;-54
2023/06/04 07:00:11;;;;;;;;;;;;;;;17.75;49.50;101205.69;5042882;28;1088;-54
2023/06/04 07:02:36;;;;;;;;;;;;;;;17.57;48.45;101208.91;5056137;28;1084;-49
2023/06/04 07:05:02;;;;;;;;;;;;;;;17.52;48.04;101214.41;5049573;28;1337;-53
2023/06/04 07:07:27;;;;;;;;;;;;;;;17.37;47.72;101213.25;5024431;28;1210;-52
2023/06/04 07:09:53;;;;;;;;;;;;;;;18.29;49.51;101228.38;5055687;28;1975;-53
2023/06/04 07:12:18;;;;;;;;;;;;;;;17.79;49.55;101227.97;5056217;28;1048;-54
2023/06/04 07:14:44;;;;;;;;;;;;;;;17.61;48.86;101224.63;5055959;28;1084;-51
2023/06/04 07:17:10;;;;;;;;;;;;;;;17.50;48.22;101225.69;5056108;28;1211;-53
2023/06/04 07:19:36;;;;;;;;;;;;;;;18.26;49.53;101223.44;5055616;28;1195;-53
2023/06/04 07:22:01;;;;;;;;;;;;;;;17.66;49.56;101218.31;5057973;28;1068;-54
2023/06/04 07:24:27;;;;;;;;;;;;;;;17.62;48.56;101223.50;5060050;28;1196;-54
2023/06/04 07:26:52;;;;;;;;;;;;;;;18.22;49.51;101227.81;5059444;28;1048;-53
2023/06/04 07:29:18;;;;;;;;;;;;;;;17.93;49.50;101226.38;5059524;28;1909;-53
2023/06/04 07:31:43;;;;;;;;;;;;;;;17.70;48.84;101230.44;5059526;28;1132;-53
2023/06/04 07:34:09;;;;;;;;;;;;;;;17.56;48.24;101226.53;5039945;28;1113;-52
2023/06/04 07:36:34;;;;;;;;;;;;;;;17.55;47.70;101220.19;5052183;28;1005;-53
2023/06/04 07:39:00;;;;;;;;;;;;;;;18.21;49.63;101213.22;5059692;28;1100;-52
2023/06/04 07:41:26;;;;;;;;;;;;;;;17.76;49.29;101232.09;5059685;28;1063;-52
2023/06/04 07:43:51;;;;;;;;;;;;;;;17.67;48.35;101219.13;5046891;28;1099;-54
2023/06/04 07:46:19;;;;;;;;;;;;;;;17.62;47.85;101234.50;5059312;28;1052;-54
2023/06/04 07:48:45;;;;;;;;;;;;;;;17.47;47.41;101228.97;5059272;28;1906;-52
2023/06/04 07:51:11;;;;;;;;;;;;;;;17.44;47.38;101229.50;5059307;28;1231;-52
2023/06/04 07:53:37;;;;;;;;;;;;;;;18.52;49.10;101232.50;5059182;28;1203;-54
2023/06/04 07:56:03;;;;;;;;;;;;;;;17.87;49.36;101243.13;5053898;28;1148;-54
2023/06/04 07:58:28;;;;;;;;;;;;;;;17.68;48.56;101240.03;5059522;28;1179;-53
2023/06/04 08:00:54;;;;;;;;;;;;;;;17.64;47.85;101237.00;5059337;28;1083;-52
2023/06/04 08:03:20;;;;;;;;;;;;;;;18.09;48.70;101243.78;5058822;28;1155;-54
2023/06/04 08:05:45;;;;;;;;;;;;;;;18.00;49.27;101247.31;5041614;28;1164;-53
2023/06/04 08:08:11;;;;;;;;;;;;;;;17.73;48.54;101249.13;5052852;28;1195;-54
2023/06/04 08:10:37;;;;;;;;;;;;;;;17.66;48.01;101240.31;5051775;28;1914;-54
2023/06/04 08:13:02;;;;;;;;;;;;;;;17.62;47.21;101244.69;5058792;28;1119;-54
2023/06/04 08:15:28;;;;;;;;;;;;;;;17.52;47.05;101248.22;5059048;28;1155;-52
2023/06/04 08:17:53;;;;;;;;;;;;;;;17.89;48.09;101249.19;5058945;28;1088;-53
2023/06/04 08:20:19;;;;;;;;;;;;;;;18.02;49.13;101250.63;5058675;28;1135;-54
2023/06/04 08:22:44;;;;;;;;;;;;;;;17.66;48.78;101259.56;5045015;28;1080;-51
2023/06/04 08:25:10;;;;;;;;;;;;;;;17.65;47.84;101257.91;5058363;28;1113;-54
2023/06/04 08:27:35;;;;;;;;;;;;;;;17.54;47.43;101257.03;5058157;28;1524;-51
2023/06/04 08:30:01;;;;;;;;;;;;;;;17.47;47.44;101256.44;5040937;28;1985;-51
2023/06/04 08:32:27;;;;;;;;;;;;;;;18.57;49.07;101262.00;5052473;28;1015;-52
2023/06/04 08:34:53;;;;;;;;;;;;;;;17.86;49.35;101260.75;5049999;28;1084;-51
2023/06/04 08:37:18;;;;;;;;;;;;;;;17.77;48.34;101255.75;5058673;28;997;-54
2023/06/04 08:39:44;;;;;;;;;;;;;;;17.69;47.89;101259.03;5058554;28;1127;-53
2023/06/04 08:42:21;;;;;;;;;;;;;;;17.54;47.45;101257.03;5058216;28;1113;-55
2023/06/04 08:44:50;;;;;;;;;;;;;;;17.51;47.06;101256.75;5057812;28;1072;-54
2023/06/04 08:47:16;;;;;;;;;;;;;;;17.53;46.84;101257.28;5045843;28;1127;-53
2023/06/04 08:49:41;;;;;;;;;;;;;;;18.41;48.74;101252.88;5040152;28;1975;-54
2023/06/04 08:52:07;;;;;;;;;;;;;;;17.90;48.50;101245.34;5058430;28;1123;-51
2023/06/04 08:54:32;;;;;;;;;;;;;;;17.69;48.35;101264.53;5040603;28;1158;-54
2023/06/04 08:56:58;;;;;;;;;;;;;;;18.12;48.74;101262.47;5051095;28;861;-54
2023/06/04 08:59:23;;;;;;;;;;;;;;;18.00;49.10;101259.16;5039019;28;1203;-53
2023/06/04 09:01:51;;;;;;;;;;;;;;;17.81;48.35;101271.72;5058307;28;1064;-53
2023/06/04 09:04:16;;;;;;;;;;;;;;;17.65;47.94;101263.41;5058488;28;1191;-54
2023/06/04 09:06:42;;;;;;;;;;;;;;;17.64;47.38;101267.25;5057988;28;1027;-54
2023/06/04 09:09:09;;;;;;;;;;;;;;;18.10;48.33;101264.69;5056851;28;1910;-56
2023/06/04 09:11:53;;;;;;;;;;;;;;;18.01;48.84;101257.25;5045479;28;1126;-55
2023/06/04 09:14:18;;;;;;;;;;;;;;;17.77;48.17;101266.75;5057584;28;1028;-56
2023/06/04 09:16:47;;;;;;;;;;;;;;;17.72;47.48;101266.72;5057725;28;1154;-46
2023/06/04 09:19:13;;;;;;;;;;;;;;;17.67;47.14;101261.22;5057721;28;1071;-51
2023/06/04 09:21:51;;;;;;;;;;;;;;;17.52;47.07;101258.41;5029686;28;962;-56
2023/06/04 09:24:17;;;;;;;;;;;;;;;17.47;46.64;101252.88;5055789;28;1139;-51
2023/06/04 09:26:43;;;;;;;;;;;;;;;18.46;48.55;101259.22;5057544;28;1059;-53
2023/06/04 09:29:08;;;;;;;;;;;;;;;17.93;48.63;101264.91;5056785;28;1981;-53
2023/06/04 09:31:36;;;;;;;;;;;;;;;17.78;47.82;101259.31;5057310;28;1052;-52
2023/06/04 09:34:02;;;;;;;;;;;;;;;17.69;47.37;101264.53;5052189;28;1056;-52
2023/06/04 09:36:31;;;;;;;;;;;;;;;17.55;47.00;101258.69;5048849;28;1056;-56
2023/06/04 09:38:57;;;;;;;;;;;;;;;17.51;46.63;101256.75;5057227;28;1124;-51
2023/06/04 09:41:22;;;;;;;;;;;;;;;17.46;47.02;101260.31;5027240;28;1158;-54
2023/06/04 09:43:48;;;;;;;;;;;;;;;18.24;48.23;101261.41;5055915;28;1064;-53
2023/06/04 09:46:14;;;;;;;;;;;;;;;17.80;48.23;101268.16;5039197;28;894;-55
2023/06/04 09:48:40;;;;;;;;;;;;;;;17.65;47.94;101260.66;5056857;28;1919;-54
2023/06/04 09:51:12;;;;;;;;;;;;;;;17.69;48.05;101259.03;5057077;28;1027;-52
2023/06/04 09:53:38;;;;;;;;;;;;;;;17.97;48.33;101259.69;5056922;28;1267;-51
2023/06/04 09:56:03;;;;;;;;;;;;;;;18.02;49.12;101253.38;5056694;28;1218;-53
2023/06/04 09:58:29;;;;;;;;;;;;;;;17.76;48.39;101265.09;5057298;28;1155;-52
2023/06/04 10:00:55;;;;;;;;;;;;;;;17.69;47.79;101269.22;5056933;28;1211;-53
2023/06/04 10:03:23;;;;;;;;;;;;;;;17.66;47.64;101264.25;5056745;28;1120;-51
2023/06/04 10:05:49;;;;;;;;;;;;;;;17.64;47.14;101264.50;5056888;28;1388;-51
2023/06/04 10:08:14;;;;;;;;;;;;;;;17.53;46.61;101255.41;5056134;28;1222;-44
2023/06/04 10:10:40;;;;;;;;;;;;;;;17.45;46.72;101253.97;5027872;28;1914;-47
2023/06/04 10:13:07;;;;;;;;;;;;;;;17.40;46.60;101245.72;5032217;28;1132;-50
2023/06/04 10:15:34;;;;;;;;;;;;;;;17.43;46.50;101249.84;5047734;28;1068;-47
2023/06/04 10:17:59;;;;;;;;;;;;;;;17.25;46.58;101254.72;5039126;28;1056;-49
2023/06/04 10:20:25;;;;;;;;;;;;;;;17.35;46.02;101247.59;5046679;28;1024;-47
2023/06/04 10:22:50;;;;;;;;;;;;;;;18.09;47.47;101259.44;5057084;28;1135;-53
2023/06/04 10:25:16;;;;;;;;;;;;;;;17.71;48.01;101251.34;5038962;28;1106;-52
2023/06/04 10:27:41;;;;;;;;;;;;;;;17.47;47.85;101255.63;5038880;28;1107;-52
2023/06/04 10:30:07;;;;;;;;;;;;;;;17.39;47.25;101257.81;5056542;28;1908;-51
2023/06/04 10:32:33;;;;;;;;;;;;;;;17.47;46.70;101244.63;5022703;28;1049;-47
2023/06/04 10:34:58;;;;;;;;;;;;;;;17.37;46.57;101239.91;5038570;28;1207;-53
2023/06/04 10:37:25;;;;;;;;;;;;;;;17.34;46.44;101245.97;5032109;28;1272;-52
2023/06/04 10:39:51;;;;;;;;;;;;;;;17.81;47.37;101245.06;5049120;28;1028;-53
2023/06/04 10:42:18;;;;;;;;;;;;;;;17.61;48.12;101251.28;5037787;28;1060;-51
2023/06/04 10:44:53;;;;;;;;;;;;;;;17.53;47.19;101252.66;5038163;28;1036;-49
2023/06/04 10:47:24;;;;;;;;;;;;;;;17.39;47.02;101246.81;5056090;28;1203;-51
2023/06/04 10:49:51;;;;;;;;;;;;;;;17.38;46.73;101236.91;5055020;28;1913;-53
2023/06/04 10:52:16;;;;;;;;;;;;;;;17.38;46.29;101234.16;5044135;28;1091;-51
2023/06/04 10:54:42;;;;;;;;;;;;;;;17.24;46.12;101243.97;5038359;28;1016;-51
2023/06/04 10:57:14;;;;;;;;;;;;;;;17.24;46.12;101249.47;5055389;28;1067;-52
2023/06/04 10:59:39;;;;;;;;;;;;;;;17.08;46.39;101248.53;5042449;28;1063;-50
2023/06/04 11:02:06;;;;;;;;;;;;;;;18.03;47.44;101247.59;5055797;28;1119;-50
2023/06/04 11:04:31;;;;;;;;;;;;;;;17.50;47.90;101238.59;5038382;28;1199;-51
2023/06/04 11:07:02;;;;;;;;;;;;;;;17.38;47.51;101253.38;5038036;28;1484;-52
2023/06/04 11:09:27;;;;;;;;;;;;;;;17.30;47.16;101251.16;5053216;28;1910;-51
2023/06/04 11:11:59;;;;;;;;;;;;;;;17.21;47.02;101252.75;5018159;28;1219;-49
2023/06/04 11:14:24;;;;;;;;;;;;;;;17.65;47.15;101257.91;5052920;28;1076;-52
2023/06/04 11:16:50;;;;;;;;;;;;;;;17.85;48.24;101256.31;5055955;28;1063;-53
2023/06/04 11:19:15;;;;;;;;;;;;;;;17.55;47.87;101257.88;5056127;28;1071;-53
2023/06/04 11:21:41;;;;;;;;;;;;;;;17.35;47.68;101270.44;5055731;28;993;-52
2023/06/04 11:24:07;;;;;;;;;;;;;;;17.32;47.04;101259.97;5022197;28;1568;-50
2023/06/04 11:26:33;;;;;;;;;;;;;;;17.89;47.94;101265.69;5036050;28;1136;-50
2023/06/04 11:28:58;;;;;;;;;;;;;;;17.65;48.13;101268.91;5051727;28;1975;-50
2023/06/04 11:31:24;;;;;;;;;;;;;;;17.52;47.35;101267.47;5055497;28;1099;-50
2023/06/04 11:33:50;;;;;;;;;;;;;;;17.29;46.89;101265.97;5051993;28;1406;-50
2023/06/04 11:36:22;;;;;;;;;;;;;;;17.32;46.62;101259.97;5045891;28;1065;-50
2023/06/04 11:38:57;;;;;;;;;;;;;;;17.26;46.45;101261.03;5042668;28;1016;-48
2023/06/04 11:41:23;;;;;;;;;;;;;;;17.80;47.22;101262.66;5055712;28;1075;-47
2023/06/04 11:43:49;;;;;;;;;;;;;;;17.58;47.85;101254.59;5055166;28;1219;-47
2023/06/04 11:46:15;;;;;;;;;;;;;;;17.44;47.41;101263.31;5055278;28;1187;-45
2023/06/04 11:48:40;;;;;;;;;;;;;;;17.36;46.76;101250.09;5035809;28;1910;-48
2023/06/04 11:51:07;;;;;;;;;;;;;;;17.22;46.73;101257.16;5035796;28;1195;-49
2023/06/04 11:53:33;;;;;;;;;;;;;;;17.18;46.27;101259.63;5055057;28;1049;-51
2023/06/04 11:55:59;;;;;;;;;;;;;;;17.16;46.39;101259.03;5055662;28;1060;-51
2023/06/04 11:58:24;;;;;;;;;;;;;;;17.22;45.90;101255.25;5049489;28;1215;-50
2023/06/04 12:00:50;;;;;;;;;;;;;;;18.24;47.03;101266.91;5035763;28;1180;-49
2023/06/04 12:03:16;;;;;;;;;;;;;;;17.60;47.85;101263.41;5054141;28;1204;-50
2023/06/04 12:05:41;;;;;;;;;;;;;;;17.43;47.29;101256.19;5055649;28;1195;-52
2023/06/04 12:08:09;;;;;;;;;;;;;;;17.39;46.86;101254.22;5055423;28;1115;-52
2023/06/04 12:10:41;;;;;;;;;;;;;;;17.30;46.43;101251.16;5046442;28;1973;-49
2023/06/04 12:13:07;;;;;;;;;;;;;;;17.28;46.25;101251.41;5046005;28;1017;-51
2023/06/04 12:15:32;;;;;;;;;;;;;;;17.26;46.02;101255.53;5059204;28;1064;-47
2023/06/04 12:17:58;;;;;;;;;;;;;;;17.17;45.93;101246.97;5045974;28;1052;-48
2023/06/04 12:20:39;;;;;;;;;;;;;;;17.99;47.31;101251.97;5058957;28;1215;-46
2023/06/04 12:23:05;;;;;;;;;;;;;;;17.53;47.37;101249.06;5049610;28;885;-46
2023/06/04 12:25:31;;;;;;;;;;;;;;;17.38;46.84;101244.31;5038749;28;1167;-53
2023/06/04 12:27:57;;;;;;;;;;;;;;;17.35;46.45;101248.44;5051264;28;1139;-50
2023/06/04 12:30:22;;;;;;;;;;;;;;;17.14;46.39;101241.16;5058617;28;1981;-50
2023/06/04 12:32:48;;;;;;;;;;;;;;;17.24;46.16;101233.81;5058555;28;1119;-49
2023/06/04 12:35:15;;;;;;;;;;;;;;;18.28;46.86;101246.81;5045039;28;878;-54
2023/06/04 12:37:41;;;;;;;;;;;;;;;17.65;47.90;101249.66;5041105;28;1033;-50
2023/06/04 12:40:07;;;;;;;;;;;;;;;17.44;47.22;101244.06;5057015;28;1091;-52
2023/06/04 12:42:32;;;;;;;;;;;;;;;17.40;46.62;101239.38;5046738;28;1245;-51
2023/06/04 12:44:58;;;;;;;;;;;;;;;17.31;46.64;101247.31;5044698;28;1150;-54